DLH36N LOWS-EDDM
Flight info
| Callsign | DLH36N |
|---|---|
| Flight time | 0h 16m |
| Altitude | 12000 |
| Route | TITIG Q112 NAPSA NAPSA1B |
| Aircraft | B738/M-SDE2E3FGHIRWXY/LB1 |
Departure
| Time | 2026-05-06 17:55 |
|---|---|
| Airport | Salzburg Airport (LOWS) |
Arrival
| Time | 2026-05-06 18:12 |
|---|---|
| Airport | Munich Airport (EDDM) |
| Time | Latitude | Longitude | Altitude | Speed | Heading |
|---|---|---|---|---|---|
| 2026-05-06 17:24 | 47.79194 | 13.00112 | 1416 ft | 0 kts | 102° |
| 2026-05-06 17:49 | 47.79194 | 13.00116 | 1416 ft | 0 kts | 110° |
| 2026-05-06 17:49 | 47.79185 | 13.00126 | 1416 ft | 2 kts | 153° |
| 2026-05-06 17:49 | 47.79165 | 13.00120 | 1417 ft | 4 kts | 220° |
| 2026-05-06 17:49 | 47.79141 | 13.00089 | 1417 ft | 5 kts | 221° |
| 2026-05-06 17:50 | 47.79108 | 13.00065 | 1417 ft | 4 kts | 176° |
| 2026-05-06 17:50 | 47.79064 | 13.00091 | 1417 ft | 8 kts | 157° |
| 2026-05-06 17:50 | 47.78997 | 13.00133 | 1417 ft | 11 kts | 157° |
| 2026-05-06 17:50 | 47.78959 | 13.00193 | 1416 ft | 6 kts | 97° |
| 2026-05-06 17:51 | 47.78955 | 13.00257 | 1415 ft | 6 kts | 93° |
| 2026-05-06 17:51 | 47.78952 | 13.00324 | 1414 ft | 6 kts | 93° |
| 2026-05-06 17:51 | 47.78939 | 13.00377 | 1413 ft | 5 kts | 135° |
| 2026-05-06 17:51 | 47.78907 | 13.00402 | 1413 ft | 5 kts | 157° |
| 2026-05-06 17:52 | 47.78852 | 13.00436 | 1413 ft | 11 kts | 157° |
| 2026-05-06 17:52 | 47.78760 | 13.00493 | 1413 ft | 17 kts | 158° |
| 2026-05-06 17:52 | 47.78636 | 13.00573 | 1413 ft | 20 kts | 153° |
| 2026-05-06 17:52 | 47.78510 | 13.00653 | 1413 ft | 19 kts | 158° |
| 2026-05-06 17:53 | 47.78380 | 13.00733 | 1414 ft | 21 kts | 159° |
| 2026-05-06 17:53 | 47.78251 | 13.00819 | 1415 ft | 18 kts | 150° |
| 2026-05-06 17:53 | 47.78183 | 13.00947 | 1414 ft | 13 kts | 103° |
| 2026-05-06 17:53 | 47.78207 | 13.01052 | 1413 ft | 9 kts | 63° |
| 2026-05-06 17:54 | 47.78234 | 13.01089 | 1413 ft | 5 kts | 8° |
| 2026-05-06 17:54 | 47.78282 | 13.01060 | 1413 ft | 12 kts | 336° |
| 2026-05-06 17:54 | 47.78547 | 13.00892 | 1411 ft | 75 kts | 336° |
| 2026-05-06 17:54 | 47.79238 | 13.00459 | 1410 ft | 136 kts | 336° |
| 2026-05-06 17:55 | 47.80227 | 12.99846 | 1636 ft | 165 kts | 336° |
| 2026-05-06 17:55 | 47.81298 | 12.99233 | 2276 ft | 168 kts | 336° |
| 2026-05-06 17:55 | 47.82342 | 12.98505 | 2857 ft | 165 kts | 323° |
| 2026-05-06 17:55 | 47.83110 | 12.97152 | 3000 ft | 186 kts | 292° |
| 2026-05-06 17:56 | 47.83586 | 12.95307 | 3365 ft | 199 kts | 295° |
| 2026-05-06 17:56 | 47.84244 | 12.93448 | 3759 ft | 213 kts | 299° |
| 2026-05-06 17:56 | 47.85034 | 12.91423 | 4047 ft | 235 kts | 300° |
| 2026-05-06 17:56 | 47.85894 | 12.89317 | 4682 ft | 241 kts | 301° |
| 2026-05-06 17:57 | 47.86778 | 12.87210 | 5366 ft | 245 kts | 302° |
| 2026-05-06 17:57 | 47.87703 | 12.85079 | 6085 ft | 247 kts | 299° |
| 2026-05-06 17:57 | 47.88529 | 12.82800 | 6613 ft | 257 kts | 296° |
| 2026-05-06 17:57 | 47.89374 | 12.80435 | 7266 ft | 263 kts | 297° |
| 2026-05-06 17:58 | 47.90268 | 12.78067 | 8093 ft | 263 kts | 298° |
| 2026-05-06 17:58 | 47.91192 | 12.75686 | 8703 ft | 271 kts | 298° |
| 2026-05-06 17:58 | 47.92367 | 12.73454 | 8803 ft | 279 kts | 312° |
| 2026-05-06 17:58 | 47.93774 | 12.71471 | 8805 ft | 277 kts | 313° |
| 2026-05-06 17:59 | 47.95143 | 12.69500 | 8805 ft | 276 kts | 312° |
| 2026-05-06 17:59 | 47.96520 | 12.67482 | 8804 ft | 276 kts | 312° |
| 2026-05-06 17:59 | 47.97877 | 12.65481 | 8805 ft | 276 kts | 312° |
| 2026-05-06 17:59 | 47.99231 | 12.63481 | 8804 ft | 276 kts | 312° |
| 2026-05-06 18:00 | 48.00576 | 12.61489 | 8804 ft | 276 kts | 312° |
| 2026-05-06 18:00 | 48.01923 | 12.59491 | 8804 ft | 276 kts | 312° |
| 2026-05-06 18:00 | 48.03280 | 12.57476 | 8804 ft | 276 kts | 312° |
| 2026-05-06 18:00 | 48.04643 | 12.55450 | 8804 ft | 276 kts | 312° |
| 2026-05-06 18:01 | 48.05990 | 12.53447 | 8803 ft | 276 kts | 312° |
| 2026-05-06 18:01 | 48.07338 | 12.51440 | 8803 ft | 276 kts | 312° |
| 2026-05-06 18:01 | 48.08701 | 12.49408 | 8759 ft | 278 kts | 312° |
| 2026-05-06 18:01 | 48.10062 | 12.47377 | 8441 ft | 279 kts | 312° |
| 2026-05-06 18:02 | 48.11363 | 12.45436 | 8080 ft | 276 kts | 312° |
| 2026-05-06 18:02 | 48.12708 | 12.43427 | 7706 ft | 273 kts | 312° |
| 2026-05-06 18:02 | 48.13882 | 12.41672 | 7376 ft | 271 kts | 312° |
| 2026-05-06 18:02 | 48.15212 | 12.39684 | 7000 ft | 269 kts | 312° |
| 2026-05-06 18:03 | 48.16528 | 12.37712 | 6625 ft | 268 kts | 312° |
| 2026-05-06 18:03 | 48.17835 | 12.35752 | 6252 ft | 267 kts | 312° |
| 2026-05-06 18:03 | 48.19132 | 12.33806 | 5881 ft | 266 kts | 312° |
| 2026-05-06 18:03 | 48.20436 | 12.31846 | 5505 ft | 266 kts | 312° |
| 2026-05-06 18:04 | 48.21749 | 12.29877 | 5129 ft | 267 kts | 311° |
| 2026-05-06 18:04 | 48.23057 | 12.27906 | 4961 ft | 266 kts | 311° |
| 2026-05-06 18:04 | 48.24345 | 12.25958 | 4967 ft | 263 kts | 312° |
| 2026-05-06 18:04 | 48.25635 | 12.24016 | 4966 ft | 267 kts | 312° |
| 2026-05-06 18:05 | 48.26957 | 12.22028 | 4965 ft | 271 kts | 311° |
| 2026-05-06 18:05 | 48.28283 | 12.20026 | 4925 ft | 270 kts | 312° |
| 2026-05-06 18:05 | 48.29581 | 12.18061 | 4722 ft | 259 kts | 312° |
| 2026-05-06 18:05 | 48.30804 | 12.16221 | 4554 ft | 241 kts | 312° |
| 2026-05-06 18:06 | 48.31967 | 12.14472 | 4393 ft | 229 kts | 312° |
| 2026-05-06 18:06 | 48.33075 | 12.12808 | 4219 ft | 225 kts | 311° |
| 2026-05-06 18:06 | 48.34172 | 12.11138 | 4048 ft | 222 kts | 311° |
| 2026-05-06 18:06 | 48.35239 | 12.09511 | 3961 ft | 216 kts | 311° |
| 2026-05-06 18:07 | 48.36218 | 12.07777 | 3965 ft | 223 kts | 294° |
| 2026-05-06 18:07 | 48.36567 | 12.05560 | 3964 ft | 214 kts | 264° |
| 2026-05-06 18:07 | 48.36236 | 12.03502 | 3977 ft | 195 kts | 253° |
| 2026-05-06 18:07 | 48.36067 | 12.01550 | 3975 ft | 177 kts | 263° |
| 2026-05-06 18:08 | 48.35923 | 11.99725 | 3968 ft | 179 kts | 263° |
| 2026-05-06 18:08 | 48.35787 | 11.97830 | 3755 ft | 183 kts | 262° |
| 2026-05-06 18:08 | 48.35651 | 11.95962 | 3573 ft | 173 kts | 263° |
| 2026-05-06 18:08 | 48.35540 | 11.94224 | 3327 ft | 164 kts | 263° |
| 2026-05-06 18:09 | 48.35406 | 11.92579 | 3070 ft | 152 kts | 262° |
| 2026-05-06 18:09 | 48.35303 | 11.91085 | 2825 ft | 137 kts | 264° |
| 2026-05-06 18:09 | 48.35222 | 11.89712 | 2665 ft | 129 kts | 264° |
| 2026-05-06 18:09 | 48.35105 | 11.88344 | 2546 ft | 134 kts | 260° |
| 2026-05-06 18:10 | 48.34975 | 11.86947 | 2405 ft | 138 kts | 263° |
| 2026-05-06 18:10 | 48.34879 | 11.85519 | 2172 ft | 137 kts | 263° |
| 2026-05-06 18:10 | 48.34773 | 11.84147 | 1998 ft | 133 kts | 263° |
| 2026-05-06 18:10 | 48.34664 | 11.82765 | 1806 ft | 133 kts | 262° |
| 2026-05-06 18:11 | 48.34553 | 11.81370 | 1639 ft | 135 kts | 263° |
| 2026-05-06 18:11 | 48.34445 | 11.79973 | 1479 ft | 134 kts | 263° |
| 2026-05-06 18:11 | 48.34355 | 11.78826 | 1476 ft | 81 kts | 263° |
| 2026-05-06 18:11 | 48.34311 | 11.78070 | 1476 ft | 60 kts | 277° |
| 2026-05-06 18:12 | 48.34413 | 11.77661 | 1473 ft | 24 kts | 295° |
| 2026-05-06 18:12 | 48.34446 | 11.77550 | 1473 ft | 1 kts | 294° |
| 2026-05-06 18:12 | 48.34448 | 11.77544 | 1473 ft | 0 kts | 294° |
| 2026-05-06 18:12 | 48.34448 | 11.77542 | 1472 ft | 0 kts | 294° |
| 2026-05-06 18:13 | 48.34449 | 11.77539 | 1472 ft | 0 kts | 294° |
| 2026-05-06 18:13 | 48.34452 | 11.77529 | 1473 ft | 3 kts | 294° |
| 2026-05-06 18:13 | 48.34470 | 11.77479 | 1472 ft | 6 kts | 313° |
| 2026-05-06 18:13 | 48.34518 | 11.77439 | 1473 ft | 9 kts | 347° |
| 2026-05-06 18:14 | 48.34589 | 11.77428 | 1473 ft | 10 kts | 356° |
| 2026-05-06 18:14 | 48.34635 | 11.77476 | 1472 ft | 9 kts | 87° |
| 2026-05-06 18:14 | 48.34640 | 11.77586 | 1472 ft | 11 kts | 83° |
| 2026-05-06 18:14 | 48.34652 | 11.77741 | 1471 ft | 18 kts | 83° |
| 2026-05-06 18:15 | 48.34668 | 11.77965 | 1469 ft | 24 kts | 84° |
| 2026-05-06 18:15 | 48.34690 | 11.78232 | 1469 ft | 27 kts | 83° |
| 2026-05-06 18:15 | 48.34710 | 11.78497 | 1472 ft | 22 kts | 84° |
| 2026-05-06 18:15 | 48.34729 | 11.78733 | 1474 ft | 22 kts | 83° |
| 2026-05-06 18:16 | 48.34746 | 11.78971 | 1473 ft | 23 kts | 83° |
| 2026-05-06 18:16 | 48.34766 | 11.79220 | 1470 ft | 24 kts | 84° |
| 2026-05-06 18:16 | 48.34783 | 11.79445 | 1468 ft | 15 kts | 84° |
| 2026-05-06 18:16 | 48.34821 | 11.79556 | 1466 ft | 9 kts | 15° |
| 2026-05-06 18:17 | 48.34870 | 11.79555 | 1466 ft | 4 kts | 352° |
| 2026-05-06 18:17 | 48.34893 | 11.79551 | 1466 ft | 2 kts | 353° |
| 2026-05-06 18:17 | 48.34902 | 11.79549 | 1466 ft | 0 kts | 353° |
| 2026-05-06 18:17 | 48.34921 | 11.79545 | 1466 ft | 5 kts | 353° |
| 2026-05-06 18:18 | 48.34973 | 11.79536 | 1466 ft | 9 kts | 353° |
| 2026-05-06 18:18 | 48.35043 | 11.79524 | 1466 ft | 10 kts | 353° |
| 2026-05-06 18:18 | 48.35104 | 11.79513 | 1466 ft | 5 kts | 351° |
| 2026-05-06 18:18 | 48.35121 | 11.79491 | 1466 ft | 2 kts | 287° |
| 2026-05-06 18:19 | 48.35122 | 11.79462 | 1466 ft | 2 kts | 262° |
| 2026-05-06 18:19 | 48.35118 | 11.79429 | 1466 ft | 3 kts | 263° |
| 2026-05-06 18:19 | 48.35115 | 11.79392 | 1466 ft | 3 kts | 263° |
| 2026-05-06 18:19 | 48.35112 | 11.79355 | 1466 ft | 0 kts | 263° |